createdAt,value
2023-07-19T00:01:12.133Z,679.33
2023-07-19T00:03:44.306Z,683.17
2023-07-19T00:06:19.137Z,675.53
2023-07-19T00:08:51.247Z,678.88
2023-07-19T00:11:25.791Z,680.08
2023-07-19T00:13:58.015Z,672.90
2023-07-19T00:16:29.774Z,677.00
2023-07-19T00:19:18.157Z,675.58
2023-07-19T00:21:52.432Z,675.65
2023-07-19T00:24:27.274Z,676.25
2023-07-19T00:26:59.126Z,675.88
2023-07-19T00:29:31.139Z,668.78
2023-07-19T00:32:11.637Z,667.22
2023-07-19T00:34:47.406Z,668.25
2023-07-19T00:37:21.919Z,664.92
2023-07-19T00:39:53.818Z,672.03
2023-07-19T00:42:26.146Z,664.55
2023-07-19T00:44:58.541Z,669.42
2023-07-19T00:47:34.675Z,665.00
2023-07-19T00:50:11.519Z,666.40
2023-07-19T00:52:44.188Z,665.95
2023-07-19T00:55:20.172Z,665.03
2023-07-19T00:57:55.303Z,658.13
2023-07-19T01:00:28.553Z,657.27
2023-07-19T01:03:01.008Z,659.58
2023-07-19T01:05:33.192Z,670.28
2023-07-19T01:08:05.275Z,659.33
2023-07-19T01:10:37.247Z,659.50
2023-07-19T01:13:13.055Z,659.65
2023-07-19T01:15:46.864Z,656.13
2023-07-19T01:18:20.428Z,656.55
2023-07-19T01:20:52.303Z,659.13
2023-07-19T01:23:27.146Z,667.85
2023-07-19T01:25:58.863Z,654.55
2023-07-19T01:28:30.865Z,650.33
2023-07-19T01:31:08.063Z,650.72
2023-07-19T01:33:41.026Z,651.20
2023-07-19T01:38:46.516Z,647.08
2023-07-19T01:41:21.717Z,652.13
2023-07-19T01:43:54.211Z,648.00
2023-07-19T01:46:33.579Z,659.70
2023-07-19T01:49:08.021Z,653.47
2023-07-19T01:51:46.904Z,646.33
2023-07-19T01:54:19.551Z,646.10
2023-07-19T01:56:51.270Z,651.50
2023-07-19T01:59:26.694Z,640.60
2023-07-19T02:02:02.614Z,645.08
2023-07-19T02:04:34.660Z,644.65
2023-07-19T02:07:08.454Z,648.05
2023-07-19T02:09:41.718Z,646.65
2023-07-19T02:12:13.625Z,648.97
2023-07-19T02:14:45.363Z,647.35
2023-07-19T02:17:17.112Z,648.50
2023-07-19T02:19:48.920Z,646.30
2023-07-19T02:22:21.271Z,646.63
2023-07-19T02:24:53.069Z,643.95
2023-07-19T02:27:27.740Z,645.40
2023-07-19T02:29:59.766Z,645.00
2023-07-19T02:32:31.485Z,641.85
2023-07-19T02:35:03.390Z,649.08
2023-07-19T02:37:43.517Z,648.67
2023-07-19T02:40:15.270Z,654.85
2023-07-19T02:42:46.998Z,654.63
2023-07-19T02:45:21.316Z,648.17
2023-07-19T02:47:53.211Z,649.15
2023-07-19T02:50:24.975Z,640.50
2023-07-19T02:52:57.134Z,643.13
2023-07-19T02:55:31.762Z,647.92
2023-07-19T02:58:03.897Z,645.72
2023-07-19T03:00:39.651Z,3.97
2023-07-19T03:03:12.625Z,3.47
2023-07-19T03:05:44.860Z,6.43
2023-07-19T03:08:17.035Z,4.90
2023-07-19T03:10:53.038Z,6.65
2023-07-19T03:13:26.199Z,3.05
2023-07-19T03:15:58.291Z,2.92
2023-07-19T03:18:33.149Z,4.18
2023-07-19T03:21:04.993Z,7.15
2023-07-19T03:23:43.954Z,3.28
2023-07-19T03:26:19.736Z,4.95
2023-07-19T03:28:54.480Z,3.97
2023-07-19T03:31:26.992Z,4.25
2023-07-19T03:33:58.749Z,24.23
2023-07-19T03:36:30.448Z,4.57
2023-07-19T03:39:02.126Z,5.70
2023-07-19T03:41:36.766Z,4.95
2023-07-19T03:44:11.179Z,8.18
2023-07-19T03:46:46.663Z,6.70
2023-07-19T03:49:18.517Z,3.90
2023-07-19T03:51:55.500Z,5.15
2023-07-19T03:54:30.753Z,4.45
2023-07-19T03:57:07.219Z,4.15
2023-07-19T03:59:41.153Z,4.43
2023-07-19T04:02:14.034Z,4.38
2023-07-19T04:04:47.248Z,4.15
2023-07-19T04:07:19.388Z,3.50
2023-07-19T04:09:54.041Z,5.43
2023-07-19T04:12:29.539Z,3.40
2023-07-19T04:15:03.104Z,5.00
2023-07-19T04:17:35.082Z,6.07
2023-07-19T04:20:08.036Z,4.07
2023-07-19T04:22:40.138Z,4.85
2023-07-19T04:25:11.969Z,5.20
2023-07-19T04:27:44.338Z,6.28
2023-07-19T04:30:21.124Z,6.72
2023-07-19T04:32:56.561Z,5.57
2023-07-19T04:35:28.787Z,8.07
2023-07-19T04:38:01.107Z,3.67
2023-07-19T04:40:33.271Z,5.22
2023-07-19T04:43:05.753Z,4.68
2023-07-19T04:45:38.795Z,6.20
2023-07-19T04:48:11.254Z,3.50
2023-07-19T04:53:39.372Z,5.10
2023-07-19T04:56:15.193Z,5.45
2023-07-19T04:58:49.949Z,3.70
2023-07-19T05:01:22.356Z,6.57
2023-07-19T05:03:54.830Z,4.57
2023-07-19T05:06:30.592Z,4.13
2023-07-19T05:09:05.276Z,5.38
2023-07-19T05:11:41.018Z,2.75
2023-07-19T05:14:14.149Z,6.50
2023-07-19T05:16:49.838Z,5.88
2023-07-19T05:19:21.810Z,6.10
2023-07-19T05:21:57.009Z,4.05
2023-07-19T05:24:31.748Z,4.05
2023-07-19T05:27:03.994Z,7.35
2023-07-19T05:29:36.646Z,5.18
2023-07-19T05:32:17.604Z,6.15
2023-07-19T05:34:49.336Z,5.95
2023-07-19T05:37:24.201Z,7.18
2023-07-19T05:39:55.937Z,5.35
2023-07-19T05:42:27.705Z,7.68
2023-07-19T05:45:02.332Z,5.80
2023-07-19T05:47:34.745Z,7.13
2023-07-19T05:50:07.435Z,9.95
2023-07-19T05:52:40.855Z,6.95
2023-07-19T05:55:14.221Z,4.95
2023-07-19T05:57:45.973Z,8.75
2023-07-19T06:00:31.347Z,6.23
2023-07-19T06:03:03.217Z,6.65
2023-07-19T06:05:36.167Z,7.53
2023-07-19T06:08:23.503Z,12.63
2023-07-19T06:10:56.774Z,8.02
2023-07-19T06:13:28.504Z,8.70
2023-07-19T06:16:00.618Z,10.82
2023-07-19T06:18:33.266Z,13.77
2023-07-19T06:21:05.026Z,13.23
2023-07-19T06:23:37.209Z,20.23
2023-07-19T06:26:09.811Z,15.60
2023-07-19T06:28:44.673Z,17.50
2023-07-19T06:31:16.524Z,13.48
2023-07-19T06:33:48.312Z,13.82
2023-07-19T06:36:20.851Z,12.43
2023-07-19T06:38:57.158Z,13.93
2023-07-19T06:41:28.978Z,17.38
2023-07-19T06:44:00.795Z,14.60
2023-07-19T06:46:32.713Z,23.33
2023-07-19T06:49:05.262Z,18.55
2023-07-19T06:51:39.830Z,18.73
2023-07-19T06:54:15.492Z,22.05
2023-07-19T06:56:47.845Z,22.73
2023-07-19T06:59:22.835Z,26.13
2023-07-19T07:01:54.586Z,23.83
2023-07-19T07:04:26.389Z,12.85
2023-07-19T07:06:58.202Z,17.58
2023-07-19T07:09:29.943Z,15.90
2023-07-19T07:12:01.713Z,21.98
2023-07-19T07:14:33.899Z,20.75
2023-07-19T07:17:07.763Z,21.85
2023-07-19T07:19:40.676Z,21.65
2023-07-19T07:22:12.374Z,19.77
2023-07-19T07:24:51.252Z,22.52
2023-07-19T07:27:23.081Z,21.60
2023-07-19T07:30:02.161Z,20.63
2023-07-19T07:32:35.107Z,22.23
2023-07-19T07:35:09.769Z,28.23
2023-07-19T07:37:41.624Z,25.95
2023-07-19T07:40:13.737Z,29.25
2023-07-19T07:42:51.608Z,34.15
2023-07-19T07:45:23.381Z,34.55
2023-07-19T07:47:55.166Z,29.73
2023-07-19T07:50:26.941Z,34.20
2023-07-19T07:53:11.845Z,33.25
2023-07-19T07:55:44.667Z,31.13
2023-07-19T07:58:18.218Z,31.20
2023-07-19T08:00:50.427Z,38.95
2023-07-19T08:03:22.461Z,45.17
2023-07-19T08:06:23.156Z,36.78
2023-07-19T08:08:55.966Z,38.05
2023-07-19T08:11:28.268Z,39.88
2023-07-19T08:14:07.865Z,44.28
2023-07-19T08:16:39.571Z,45.40
2023-07-19T08:19:11.374Z,47.95
2023-07-19T08:21:47.086Z,52.30
2023-07-19T08:24:19.368Z,51.25
2023-07-19T08:26:51.118Z,41.28
2023-07-19T08:29:28.495Z,42.25
2023-07-19T08:32:01.385Z,44.85
2023-07-19T08:34:37.057Z,43.17
2023-07-19T08:37:12.901Z,44.67
2023-07-19T08:39:45.007Z,44.20
2023-07-19T08:42:19.981Z,51.17
2023-07-19T08:44:52.145Z,46.55
2023-07-19T08:47:26.966Z,48.35
2023-07-19T08:50:01.225Z,57.00
2023-07-19T08:52:36.131Z,60.70
2023-07-19T08:55:08.430Z,54.15
2023-07-19T08:57:44.648Z,60.38
2023-07-19T09:00:22.588Z,55.53
2023-07-19T09:02:54.915Z,57.20
2023-07-19T09:05:31.359Z,62.90
2023-07-19T09:08:03.671Z,71.88
2023-07-19T09:10:35.768Z,59.95
2023-07-19T09:13:10.495Z,56.45
2023-07-19T09:15:45.340Z,59.15
2023-07-19T09:18:20.311Z,53.13
2023-07-19T09:21:01.568Z,61.45
2023-07-19T09:23:38.253Z,63.00
2023-07-19T09:26:10.247Z,61.28
2023-07-19T09:28:42.552Z,61.30
2023-07-19T09:33:58.548Z,70.53
2023-07-19T09:36:31.106Z,65.80
2023-07-19T09:39:03.541Z,78.55
2023-07-19T09:41:35.555Z,77.25
2023-07-19T09:44:11.049Z,81.45
2023-07-19T09:46:46.522Z,76.47
2023-07-19T09:49:21.542Z,80.57
2023-07-19T09:51:57.106Z,58.90
2023-07-19T09:54:34.926Z,60.80
2023-07-19T09:57:07.938Z,74.60
2023-07-19T09:59:49.393Z,62.05
2023-07-19T10:02:23.771Z,65.20
2023-07-19T10:04:58.314Z,63.97
2023-07-19T10:07:44.827Z,60.28
2023-07-19T10:10:21.766Z,60.60
2023-07-19T10:12:53.737Z,65.68
2023-07-19T10:15:28.387Z,62.20
2023-07-19T10:18:14.632Z,60.92
2023-07-19T10:21:01.872Z,58.42
2023-07-19T10:23:46.931Z,63.30
2023-07-19T10:26:29.923Z,70.28
2023-07-19T10:29:08.526Z,63.17
2023-07-19T10:31:44.688Z,60.47
2023-07-19T10:34:17.759Z,59.33
2023-07-19T10:36:52.339Z,56.35
2023-07-19T10:39:24.562Z,60.45
2023-07-19T10:41:56.376Z,51.25
2023-07-19T10:44:28.451Z,58.92
2023-07-19T10:47:00.270Z,57.30
2023-07-19T10:49:32.825Z,52.85
2023-07-19T10:52:05.446Z,48.17
2023-07-19T10:54:46.511Z,51.70
2023-07-19T10:57:38.282Z,59.58
2023-07-19T11:00:20.898Z,61.53
2023-07-19T11:02:54.850Z,60.22
2023-07-19T11:05:28.962Z,55.92
2023-07-19T11:08:01.026Z,56.13
2023-07-19T11:10:33.315Z,63.05
2023-07-19T11:13:05.162Z,66.93
2023-07-19T11:15:42.625Z,64.80
2023-07-19T11:18:23.045Z,63.00
2023-07-19T11:21:07.327Z,73.10
2023-07-19T11:23:42.870Z,68.50
2023-07-19T11:26:20.808Z,71.22
2023-07-19T11:28:57.468Z,70.93
2023-07-19T11:31:44.448Z,70.63
2023-07-19T11:34:17.864Z,68.72
2023-07-19T11:36:49.851Z,60.05
2023-07-19T11:39:27.399Z,67.43
2023-07-19T11:41:59.168Z,96.57
2023-07-19T11:44:30.954Z,74.32
2023-07-19T11:47:03.141Z,67.28
2023-07-19T11:49:34.984Z,70.35
2023-07-19T11:52:08.397Z,68.40
2023-07-19T11:54:40.580Z,71.95
2023-07-19T11:57:13.727Z,77.28
2023-07-19T11:59:45.490Z,78.35
2023-07-19T12:02:18.267Z,75.90
2023-07-19T12:04:50.005Z,57.47
2023-07-19T12:07:21.756Z,57.67
2023-07-19T12:09:53.517Z,58.58
2023-07-19T12:12:25.362Z,79.03
2023-07-19T12:14:57.356Z,83.22
2023-07-19T12:17:29.664Z,66.45
2023-07-19T12:20:02.315Z,70.97
2023-07-19T12:22:37.302Z,74.90
2023-07-19T12:25:10.018Z,60.10
2023-07-19T12:27:54.858Z,63.42
2023-07-19T12:30:29.693Z,58.60
2023-07-19T12:33:02.274Z,62.55
2023-07-19T12:35:36.217Z,62.53
2023-07-19T12:38:09.987Z,65.95
2023-07-19T12:40:46.742Z,61.10
2023-07-19T12:43:18.462Z,58.70
2023-07-19T12:45:52.300Z,51.65
2023-07-19T12:48:24.830Z,55.25
2023-07-19T12:50:56.545Z,64.72
2023-07-19T12:53:29.322Z,55.35
2023-07-19T12:56:02.715Z,50.50
2023-07-19T12:58:34.430Z,59.92
2023-07-19T13:01:06.335Z,55.95
2023-07-19T13:03:38.167Z,61.15
2023-07-19T13:06:10.294Z,64.80
2023-07-19T13:08:42.148Z,60.72
2023-07-19T13:11:13.965Z,60.92
2023-07-19T13:13:49.026Z,55.75
2023-07-19T13:16:24.877Z,57.83
2023-07-19T13:18:57.484Z,54.00
2023-07-19T13:21:30.698Z,54.35
2023-07-19T13:24:02.737Z,60.08
2023-07-19T13:26:38.665Z,54.63
2023-07-19T13:29:11.184Z,55.58
2023-07-19T13:31:44.299Z,59.55
2023-07-19T13:34:18.835Z,48.58
2023-07-19T13:36:54.455Z,49.88
2023-07-19T13:39:31.419Z,50.13
2023-07-19T13:42:04.564Z,56.00
2023-07-19T13:44:39.500Z,51.70
2023-07-19T13:47:11.290Z,52.13
2023-07-19T13:49:43.417Z,46.80
2023-07-19T13:52:18.149Z,52.38
2023-07-19T13:54:50.831Z,49.50
2023-07-19T13:57:24.816Z,44.70
2023-07-19T13:59:57.191Z,49.55
2023-07-19T14:02:34.240Z,41.70
2023-07-19T14:05:26.603Z,40.22
2023-07-19T14:07:59.928Z,38.75
2023-07-19T14:10:34.959Z,39.22
2023-07-19T14:13:28.935Z,34.53
2023-07-19T14:16:06.571Z,38.45
2023-07-19T14:18:39.664Z,35.00
2023-07-19T14:21:11.995Z,35.40
2023-07-19T14:23:44.069Z,34.08
2023-07-19T14:26:18.054Z,31.13
2023-07-19T14:28:54.383Z,29.98
2023-07-19T14:31:31.421Z,29.48
2023-07-19T14:34:04.231Z,26.67
2023-07-19T14:36:35.944Z,23.73
2023-07-19T14:39:07.679Z,31.80
2023-07-19T14:41:39.693Z,23.55
2023-07-19T14:44:11.467Z,31.00
2023-07-19T14:46:43.571Z,33.72
2023-07-19T14:49:19.603Z,29.40
2023-07-19T14:51:51.962Z,31.92
2023-07-19T14:54:26.704Z,28.15
2023-07-19T14:59:36.009Z,30.42
2023-07-19T15:04:50.340Z,45.35
2023-07-19T15:07:23.050Z,40.03
2023-07-19T15:09:58.278Z,33.95
2023-07-19T15:12:30.259Z,38.35
2023-07-19T15:15:05.994Z,38.65
2023-07-19T15:17:37.944Z,36.70
2023-07-19T15:20:10.474Z,38.10
2023-07-19T15:22:42.822Z,34.67
2023-07-19T15:25:18.470Z,35.03
2023-07-19T15:27:50.274Z,36.55
2023-07-19T15:30:22.015Z,32.55
2023-07-19T15:32:53.790Z,29.30
2023-07-19T15:35:28.151Z,33.20
2023-07-19T15:37:59.930Z,28.98
2023-07-19T15:40:32.064Z,23.02
2023-07-19T15:43:05.890Z,23.98
2023-07-19T15:45:37.694Z,22.17
2023-07-19T15:48:09.668Z,20.67
2023-07-19T15:50:41.955Z,19.17
2023-07-19T15:53:15.906Z,18.85
2023-07-19T15:55:48.078Z,20.33
2023-07-19T15:58:19.860Z,18.15
2023-07-19T16:00:51.882Z,20.10
2023-07-19T16:03:23.878Z,18.38
2023-07-19T16:05:58.804Z,17.48
2023-07-19T16:08:31.219Z,21.40
2023-07-19T16:11:04.272Z,19.20
2023-07-19T16:13:36.949Z,18.30
2023-07-19T16:16:08.909Z,17.17
2023-07-19T16:18:40.645Z,16.98
2023-07-19T16:21:12.448Z,16.73
2023-07-19T16:23:45.641Z,17.77
2023-07-19T16:26:17.368Z,17.13
2023-07-19T16:28:49.132Z,17.63
2023-07-19T16:31:21.222Z,15.48
2023-07-19T16:33:53.406Z,15.82
2023-07-19T16:36:31.885Z,15.02
2023-07-19T16:39:05.903Z,15.90
2023-07-19T16:41:39.176Z,20.63
2023-07-19T16:44:12.120Z,23.75
2023-07-19T16:46:46.535Z,22.00
2023-07-19T16:49:19.382Z,24.08
2023-07-19T16:51:54.234Z,23.05
2023-07-19T16:54:26.016Z,20.35
2023-07-19T16:56:57.732Z,24.05
2023-07-19T16:59:31.839Z,28.15
2023-07-19T17:04:36.907Z,28.13
2023-07-19T17:07:08.728Z,24.08
2023-07-19T17:09:40.533Z,22.20
2023-07-19T17:12:12.581Z,20.13
2023-07-19T17:14:44.433Z,27.20
2023-07-19T17:17:19.763Z,21.63
2023-07-19T17:19:54.598Z,22.88
2023-07-19T17:22:26.422Z,24.42
2023-07-19T17:25:00.390Z,25.13
2023-07-19T17:27:33.572Z,24.92
2023-07-19T17:32:48.869Z,28.27
2023-07-19T17:35:24.210Z,26.30
2023-07-19T17:37:56.513Z,29.55
2023-07-19T17:40:33.774Z,28.15
2023-07-19T17:43:06.334Z,28.67
2023-07-19T17:45:40.478Z,26.38
2023-07-19T17:48:16.337Z,24.83
2023-07-19T17:50:49.353Z,28.85
2023-07-19T17:53:22.359Z,28.25
2023-07-19T17:55:54.124Z,26.40
2023-07-19T17:58:26.073Z,28.60
2023-07-19T18:01:00.772Z,28.17
2023-07-19T18:03:33.079Z,30.10
2023-07-19T18:06:05.285Z,24.95
2023-07-19T18:08:40.343Z,31.23
2023-07-19T18:11:12.186Z,26.08
2023-07-19T18:13:43.997Z,21.15
2023-07-19T18:16:18.632Z,18.90
2023-07-19T18:18:50.839Z,22.25
2023-07-19T18:21:25.180Z,18.17
2023-07-19T18:23:57.030Z,20.48
2023-07-19T18:26:28.785Z,24.67
2023-07-19T18:29:03.751Z,21.02
2023-07-19T18:31:38.320Z,22.90
2023-07-19T18:34:10.161Z,27.55
2023-07-19T18:36:42.588Z,18.98
2023-07-19T18:39:14.405Z,16.92
2023-07-19T18:41:46.151Z,18.13
2023-07-19T18:44:17.943Z,21.83
2023-07-19T18:46:50.533Z,23.27
2023-07-19T18:49:24.699Z,19.60
2023-07-19T18:51:57.670Z,17.80
2023-07-19T18:54:31.502Z,15.55
2023-07-19T18:57:04.940Z,18.45
2023-07-19T18:59:39.913Z,24.75
2023-07-19T19:02:11.653Z,21.17
2023-07-19T19:04:43.521Z,18.30
2023-07-19T19:07:16.174Z,12.50
2023-07-19T19:09:49.944Z,13.25
2023-07-19T19:12:21.853Z,13.85
2023-07-19T19:14:53.598Z,16.67
2023-07-19T19:17:25.420Z,15.73
2023-07-19T19:19:57.691Z,11.70
2023-07-19T19:22:32.881Z,724.78
2023-07-19T19:25:08.042Z,721.95
2023-07-19T19:27:39.888Z,727.42
2023-07-19T19:30:11.963Z,730.92
2023-07-19T19:32:43.727Z,724.47
2023-07-19T19:35:15.692Z,733.83
2023-07-19T19:37:47.876Z,728.20
2023-07-19T19:40:22.721Z,732.92
2023-07-19T19:42:58.573Z,729.03
2023-07-19T19:45:36.048Z,727.85
2023-07-19T19:48:07.982Z,730.97
2023-07-19T19:50:41.469Z,725.60
2023-07-19T19:53:16.690Z,724.28
2023-07-19T19:55:51.400Z,726.78
2023-07-19T19:58:25.275Z,727.38
2023-07-19T20:00:57.054Z,723.28
2023-07-19T20:06:04.161Z,725.60
2023-07-19T20:08:35.894Z,725.67
2023-07-19T20:11:11.540Z,722.35
2023-07-19T20:13:46.697Z,724.33
2023-07-19T20:16:19.741Z,724.40
2023-07-19T20:18:51.670Z,721.90
2023-07-19T20:21:24.899Z,718.53
2023-07-19T20:23:58.096Z,718.50
2023-07-19T20:26:30.435Z,713.17
2023-07-19T20:39:50.866Z,711.03
2023-07-19T20:42:27.354Z,706.30
2023-07-19T20:45:01.051Z,711.50
2023-07-19T20:47:38.083Z,703.20
2023-07-19T20:50:14.419Z,703.45
2023-07-19T20:52:48.502Z,703.00
2023-07-19T20:55:20.524Z,707.95
2023-07-19T20:57:52.684Z,708.85
2023-07-19T21:00:24.855Z,702.83
2023-07-19T21:02:57.830Z,702.00
2023-07-19T21:05:30.159Z,704.28
2023-07-19T21:08:04.753Z,697.97
2023-07-19T21:10:36.615Z,702.75
2023-07-19T21:13:08.385Z,703.03
2023-07-19T21:15:40.124Z,702.88
2023-07-19T21:18:14.497Z,701.83
2023-07-19T21:20:47.934Z,696.83
2023-07-19T21:23:22.075Z,695.97
2023-07-19T21:25:56.751Z,693.38
2023-07-19T21:28:30.464Z,696.50
2023-07-19T21:31:03.617Z,699.47
2023-07-19T21:33:43.044Z,699.15
2023-07-19T21:39:01.609Z,691.33
2023-07-19T21:41:34.521Z,690.40
2023-07-19T21:44:06.920Z,692.53
2023-07-19T21:46:39.940Z,685.38
2023-07-19T21:49:11.996Z,690.17
2023-07-19T21:51:46.699Z,688.70
2023-07-19T21:54:20.151Z,686.88
2023-07-19T21:56:51.872Z,682.87
2023-07-19T21:59:23.637Z,685.00
2023-07-19T22:01:56.995Z,682.72
2023-07-19T22:04:33.198Z,684.97
2023-07-19T22:07:08.808Z,683.28
2023-07-19T22:09:41.968Z,679.55
2023-07-19T22:12:18.490Z,677.75
2023-07-19T22:15:16.975Z,678.05
2023-07-19T22:21:22.234Z,679.80
2023-07-19T22:23:57.136Z,672.42
2023-07-19T22:26:28.924Z,672.30
2023-07-19T22:29:02.593Z,673.42
2023-07-19T22:31:36.060Z,665.53
2023-07-19T22:34:08.051Z,663.47
2023-07-19T22:36:39.785Z,669.03
2023-07-19T22:39:11.546Z,666.70
2023-07-19T22:41:43.260Z,663.08
2023-07-19T22:44:18.025Z,659.95
2023-07-19T22:46:52.605Z,664.75
2023-07-19T22:49:31.860Z,659.13
2023-07-19T22:52:03.769Z,655.65
2023-07-19T22:54:38.286Z,659.90
2023-07-19T22:57:10.083Z,660.00
2023-07-19T22:59:44.409Z,658.97
2023-07-19T23:02:17.244Z,661.47
2023-07-19T23:04:49.771Z,657.83
2023-07-19T23:07:24.898Z,657.90
2023-07-19T23:09:56.634Z,659.47
2023-07-19T23:12:31.492Z,659.65
2023-07-19T23:15:07.683Z,658.78
2023-07-19T23:17:39.470Z,657.65
2023-07-19T23:20:17.599Z,654.53
2023-07-19T23:22:49.365Z,657.38
2023-07-19T23:25:24.440Z,660.17
2023-07-19T23:28:02.288Z,658.53
2023-07-19T23:30:37.062Z,658.40
2023-07-19T23:33:08.948Z,660.20
2023-07-19T23:35:58.056Z,660.60
2023-07-19T23:38:33.951Z,658.53
2023-07-19T23:41:05.846Z,655.55
2023-07-19T23:43:39.269Z,656.20
2023-07-19T23:46:16.442Z,654.65
2023-07-19T23:48:48.238Z,653.88
2023-07-19T23:51:20.029Z,654.85
2023-07-19T23:53:51.777Z,652.45
2023-07-19T23:56:25.165Z,658.13
2023-07-19T23:59:00.046Z,653.05
